createdAt,value
2022-07-29T00:00:01.566Z,101389.32
2022-07-29T00:02:50.412Z,101394.37
2022-07-29T00:05:19.219Z,101390.44
2022-07-29T00:07:47.908Z,101391.34
2022-07-29T00:10:16.717Z,101391.43
2022-07-29T00:12:45.393Z,101391.29
2022-07-29T00:15:15.129Z,101392.84
2022-07-29T00:17:43.816Z,101394.56
2022-07-29T00:20:12.816Z,101393.04
2022-07-29T00:22:41.427Z,101396.61
2022-07-29T00:25:10.257Z,101398.04
2022-07-29T00:27:39.253Z,101397.38
2022-07-29T00:30:08.794Z,101401.41
2022-07-29T00:32:37.486Z,101399.27
2022-07-29T00:35:25.992Z,101394.13
2022-07-29T00:37:54.914Z,101394.73
2022-07-29T00:40:23.832Z,101393.38
2022-07-29T00:42:53.843Z,101389.27
2022-07-29T00:45:23.378Z,101389.23
2022-07-29T00:47:52.010Z,101388.56
2022-07-29T00:50:20.644Z,101388.02
2022-07-29T00:52:49.285Z,101390.98
2022-07-29T00:55:18.227Z,101395.05
2022-07-29T00:57:48.058Z,101392.05
2022-07-29T01:00:24.192Z,101389.71
2022-07-29T01:02:53.165Z,101390.49
2022-07-29T01:05:50.070Z,101387.59
2022-07-29T01:08:16.858Z,101388.81
2022-07-29T01:10:45.732Z,101390.52
2022-07-29T01:13:16.088Z,101388.85
2022-07-29T01:15:56.976Z,101391.37
2022-07-29T01:18:46.766Z,101393.86
2022-07-29T01:21:53.770Z,101393.13
2022-07-29T01:24:33.392Z,101394.55
2022-07-29T01:27:42.532Z,101393.21
2022-07-29T01:30:11.603Z,101396.42
2022-07-29T01:32:44.615Z,101395.30
2022-07-29T01:35:20.728Z,101395.14
2022-07-29T01:38:11.744Z,101395.79
2022-07-29T01:40:54.358Z,101395.27
2022-07-29T01:43:47.463Z,101396.80
2022-07-29T01:46:21.698Z,101399.56
2022-07-29T01:48:56.546Z,101396.98
2022-07-29T01:51:39.778Z,101396.48
2022-07-29T01:54:39.311Z,101390.66
2022-07-29T01:57:09.773Z,101394.60
2022-07-29T01:59:38.825Z,101397.08
2022-07-29T02:02:10.121Z,101393.08
2022-07-29T02:04:39.714Z,101387.61
2022-07-29T02:07:12.603Z,101396.76
2022-07-29T02:09:42.325Z,101399.45
2022-07-29T02:12:11.769Z,101400.71
2022-07-29T02:14:45.469Z,101400.34
2022-07-29T02:17:14.948Z,101398.23
2022-07-29T02:19:44.837Z,101400.91
2022-07-29T02:22:13.983Z,101400.98
2022-07-29T02:24:43.328Z,101401.39
2022-07-29T02:27:13.025Z,101398.08
2022-07-29T02:29:42.177Z,101398.89
2022-07-29T02:32:12.560Z,101403.48
2022-07-29T02:34:43.195Z,101410.09
2022-07-29T02:37:13.225Z,101413.40
2022-07-29T02:39:44.125Z,101418.23
2022-07-29T02:42:17.235Z,101420.19
2022-07-29T02:44:46.196Z,101423.50
2022-07-29T02:47:20.465Z,101423.31
2022-07-29T02:50:02.661Z,101425.99
2022-07-29T02:52:41.120Z,101433.04
2022-07-29T02:55:24.692Z,101431.58
2022-07-29T02:58:38.014Z,101428.45
2022-07-29T03:01:21.572Z,101429.04
2022-07-29T03:03:54.588Z,101430.36
2022-07-29T03:06:28.391Z,101432.30
2022-07-29T03:09:12.921Z,101434.89
2022-07-29T03:11:49.462Z,101437.11
2022-07-29T03:14:21.212Z,101438.13
2022-07-29T03:16:51.531Z,101438.94
2022-07-29T03:19:21.610Z,101438.13
2022-07-29T03:21:50.446Z,101435.58
2022-07-29T03:24:38.418Z,101433.06
2022-07-29T03:27:07.369Z,101435.54
2022-07-29T03:29:36.245Z,101436.00
2022-07-29T03:32:08.444Z,101438.27
2022-07-29T03:34:39.124Z,101441.02
2022-07-29T03:37:08.157Z,101441.96
2022-07-29T03:39:42.276Z,101441.06
2022-07-29T03:42:14.239Z,101441.66
2022-07-29T03:44:46.039Z,101438.77
2022-07-29T03:47:16.123Z,101440.33
2022-07-29T03:49:46.302Z,101438.95
2022-07-29T03:52:15.141Z,101437.52
2022-07-29T03:54:43.823Z,101434.52
2022-07-29T03:57:13.255Z,101438.41
2022-07-29T03:59:42.341Z,101438.44
2022-07-29T04:02:12.681Z,101445.06
2022-07-29T04:04:41.697Z,101450.27
2022-07-29T04:07:14.831Z,101450.20
2022-07-29T04:09:43.632Z,101451.39
2022-07-29T04:12:12.351Z,101452.96
2022-07-29T04:14:41.104Z,101456.52
2022-07-29T04:17:09.957Z,101455.14
2022-07-29T04:19:38.724Z,101460.88
2022-07-29T04:22:07.518Z,101459.25
2022-07-29T04:24:36.632Z,101458.56
2022-07-29T04:27:05.273Z,101456.11
2022-07-29T04:29:34.018Z,101453.98
2022-07-29T04:32:02.847Z,101453.63
2022-07-29T04:34:31.526Z,101457.23
2022-07-29T04:37:00.177Z,101456.16
2022-07-29T04:39:30.496Z,101458.63
2022-07-29T04:41:59.189Z,101459.33
2022-07-29T04:44:28.638Z,101458.35
2022-07-29T04:46:58.749Z,101462.07
2022-07-29T04:49:27.586Z,101461.67
2022-07-29T04:51:56.159Z,101461.54
2022-07-29T04:54:25.536Z,101463.81
2022-07-29T04:56:55.123Z,101463.35
2022-07-29T04:59:23.698Z,101462.06
2022-07-29T05:01:52.502Z,101464.01
2022-07-29T05:04:21.324Z,101467.14
2022-07-29T05:06:50.236Z,101465.95
2022-07-29T05:09:18.856Z,101469.03
2022-07-29T05:11:47.427Z,101470.49
2022-07-29T05:14:16.967Z,101473.20
2022-07-29T05:16:46.103Z,101476.54
2022-07-29T05:19:14.931Z,101479.13
2022-07-29T05:21:43.628Z,101481.14
2022-07-29T05:24:12.919Z,101482.21
2022-07-29T05:26:41.966Z,101483.57
2022-07-29T05:29:42.939Z,101481.82
2022-07-29T05:31:59.587Z,101483.98
2022-07-29T05:34:28.975Z,101481.47
2022-07-29T05:36:57.604Z,101478.83
2022-07-29T05:39:47.603Z,101479.70
2022-07-29T05:42:15.087Z,101480.34
2022-07-29T05:44:43.749Z,101482.68
2022-07-29T05:47:12.767Z,101487.23
2022-07-29T05:49:41.379Z,101486.23
2022-07-29T05:52:10.573Z,101482.64
2022-07-29T05:54:39.260Z,101484.43
2022-07-29T05:57:07.930Z,101486.05
2022-07-29T05:59:37.995Z,101486.67
2022-07-29T06:02:06.663Z,101488.27
2022-07-29T06:04:35.392Z,101488.52
2022-07-29T06:07:04.148Z,101492.10
2022-07-29T06:09:36.213Z,101491.66
2022-07-29T06:12:05.736Z,101500.04
2022-07-29T06:14:34.425Z,101501.27
2022-07-29T06:17:03.245Z,101506.66
2022-07-29T06:19:32.009Z,101505.56
2022-07-29T06:22:00.689Z,101507.19
2022-07-29T06:24:29.558Z,101503.91
2022-07-29T06:26:58.323Z,101505.95
2022-07-29T06:29:26.912Z,101505.20
2022-07-29T06:31:55.609Z,101503.46
2022-07-29T06:34:24.290Z,101505.06
2022-07-29T06:36:54.224Z,101505.77
2022-07-29T06:39:23.030Z,101514.05
2022-07-29T06:41:52.161Z,101516.50
2022-07-29T06:44:26.807Z,101516.69
2022-07-29T06:46:55.897Z,101514.80
2022-07-29T06:49:26.265Z,101520.71
2022-07-29T06:51:56.135Z,101520.38
2022-07-29T06:54:24.854Z,101521.80
2022-07-29T06:56:53.555Z,101519.67
2022-07-29T06:59:28.421Z,101523.83
2022-07-29T07:02:05.069Z,101526.45
2022-07-29T07:04:34.749Z,101526.85
2022-07-29T07:07:03.630Z,101528.55
2022-07-29T07:09:40.697Z,101528.44
2022-07-29T07:12:09.965Z,101527.45
2022-07-29T07:14:38.777Z,101529.85
2022-07-29T07:17:08.310Z,101531.89
2022-07-29T07:19:37.183Z,101531.80
2022-07-29T07:22:05.979Z,101534.73
2022-07-29T07:24:34.675Z,101540.38
2022-07-29T07:27:03.584Z,101539.50
2022-07-29T07:29:32.298Z,101543.14
2022-07-29T07:32:01.536Z,101546.23
2022-07-29T07:34:31.398Z,101549.16
2022-07-29T07:37:00.243Z,101549.46
2022-07-29T07:39:28.827Z,101547.48
2022-07-29T07:41:57.458Z,101548.30
2022-07-29T07:44:26.116Z,101550.07
2022-07-29T07:46:54.851Z,101550.27
2022-07-29T07:49:23.750Z,101552.31
2022-07-29T07:51:53.975Z,101554.21
2022-07-29T07:54:22.777Z,101555.45
2022-07-29T07:56:53.165Z,101560.82
2022-07-29T07:59:22.275Z,101562.77
2022-07-29T08:01:56.352Z,101564.61
2022-07-29T08:04:28.427Z,101566.36
2022-07-29T08:06:59.441Z,101564.07
2022-07-29T08:09:30.646Z,101567.33
2022-07-29T08:12:00.409Z,101570.56
2022-07-29T08:14:29.333Z,101569.89
2022-07-29T08:16:58.476Z,101571.94
2022-07-29T08:19:30.216Z,101577.72
2022-07-29T08:21:59.122Z,101579.77
2022-07-29T08:24:47.452Z,101584.34
2022-07-29T08:27:41.874Z,101582.84
2022-07-29T08:30:05.926Z,101587.86
2022-07-29T08:32:52.514Z,101587.97
2022-07-29T08:35:24.149Z,101595.34
2022-07-29T08:37:53.939Z,101599.02
2022-07-29T08:40:30.628Z,101599.34
2022-07-29T08:43:08.114Z,101604.52
2022-07-29T08:45:51.548Z,101603.25
2022-07-29T08:48:23.201Z,101601.98
2022-07-29T08:50:56.978Z,101604.83
2022-07-29T08:53:28.308Z,101605.14
2022-07-29T08:55:57.271Z,101602.36
2022-07-29T08:58:27.112Z,101600.64
2022-07-29T09:00:58.025Z,101600.33
2022-07-29T09:03:33.628Z,101603.39
2022-07-29T09:06:03.773Z,101600.39
2022-07-29T09:08:34.004Z,101606.15
2022-07-29T09:11:05.538Z,101604.61
2022-07-29T09:13:35.720Z,101605.72
2022-07-29T09:16:09.391Z,101607.13
2022-07-29T09:18:42.658Z,101609.94
2022-07-29T09:21:33.610Z,101605.86
2022-07-29T09:24:13.060Z,101609.39
2022-07-29T09:26:44.850Z,101611.23
2022-07-29T09:29:19.553Z,101613.49
2022-07-29T09:31:51.856Z,101617.66
2022-07-29T09:34:26.917Z,101617.02
2022-07-29T09:36:57.026Z,101615.63
2022-07-29T09:39:32.016Z,101616.98
2022-07-29T09:42:12.588Z,101614.55
2022-07-29T09:44:50.289Z,101608.02
2022-07-29T09:47:22.949Z,101604.30
2022-07-29T09:49:59.495Z,101603.20
2022-07-29T09:52:31.120Z,101601.08
2022-07-29T09:55:13.616Z,101601.80
2022-07-29T09:57:48.327Z,101600.75
2022-07-29T10:00:20.591Z,101604.30
2022-07-29T10:02:49.430Z,101602.87
2022-07-29T10:05:23.077Z,101604.16
2022-07-29T10:07:58.606Z,101604.46
2022-07-29T10:10:37.150Z,101601.38
2022-07-29T10:13:16.717Z,101603.37
2022-07-29T10:15:47.692Z,101598.49
2022-07-29T10:18:18.708Z,101601.90
2022-07-29T10:20:47.491Z,101597.33
2022-07-29T10:23:16.280Z,101596.73
2022-07-29T10:25:47.333Z,101593.80
2022-07-29T10:28:17.934Z,101594.20
2022-07-29T10:30:48.564Z,101592.86
2022-07-29T10:33:38.891Z,101589.60
2022-07-29T10:36:25.995Z,101595.54
2022-07-29T10:38:59.184Z,101592.37
2022-07-29T10:42:07.204Z,101588.48
2022-07-29T10:44:41.515Z,101587.74
2022-07-29T10:47:28.199Z,101585.44
2022-07-29T10:50:05.146Z,101587.10
2022-07-29T10:52:55.310Z,101591.42
2022-07-29T10:55:49.565Z,101594.38
2022-07-29T10:58:25.303Z,101590.55
2022-07-29T11:00:57.532Z,101591.30
2022-07-29T11:03:52.270Z,101587.73
2022-07-29T11:06:26.796Z,101585.31
2022-07-29T11:09:25.890Z,101589.56
2022-07-29T11:12:04.637Z,101591.84
2022-07-29T11:15:00.323Z,101590.42
2022-07-29T11:17:37.629Z,101592.70
2022-07-29T11:20:42.984Z,101593.54
2022-07-29T11:23:36.959Z,101599.35
2022-07-29T11:29:16.803Z,101593.15
2022-07-29T11:31:49.688Z,101588.27
2022-07-29T11:34:34.814Z,101597.57
2022-07-29T11:37:13.814Z,101597.40
2022-07-29T11:39:47.951Z,101592.17
2022-07-29T11:42:32.642Z,101591.87
2022-07-29T11:45:43.983Z,101586.92
2022-07-29T11:48:31.251Z,101585.66
2022-07-29T11:50:50.980Z,101584.18
2022-07-29T11:53:20.417Z,101585.92
2022-07-29T11:55:58.260Z,101580.14
2022-07-29T11:58:27.376Z,101574.20
2022-07-29T12:00:56.460Z,101568.49
2022-07-29T12:03:35.119Z,101558.67
2022-07-29T12:06:18.087Z,101550.14
2022-07-29T12:07:01.385Z,101597.66
2022-07-29T12:08:47.642Z,101543.26
2022-07-29T12:11:20.466Z,101538.76
2022-07-29T12:13:54.323Z,101537.11
2022-07-29T12:16:29.233Z,101534.61
2022-07-29T12:19:04.089Z,101535.90
2022-07-29T12:21:56.602Z,101534.86
2022-07-29T12:24:26.719Z,101535.48
2022-07-29T12:26:58.378Z,101539.20
2022-07-29T12:29:35.656Z,101538.09
2022-07-29T12:32:14.877Z,101536.20
2022-07-29T12:34:48.697Z,101533.37
2022-07-29T12:37:18.351Z,101526.14
2022-07-29T12:39:47.497Z,101524.89
2022-07-29T12:42:18.666Z,101520.58
2022-07-29T12:44:49.795Z,101515.61
2022-07-29T12:47:20.028Z,101504.63
2022-07-29T12:49:50.450Z,101502.47
2022-07-29T12:52:35.098Z,101494.06
2022-07-29T12:55:05.057Z,101495.31
2022-07-29T12:57:47.633Z,101493.40
2022-07-29T13:00:17.547Z,101491.96
2022-07-29T13:02:59.365Z,101490.08
2022-07-29T13:05:49.610Z,101491.08
2022-07-29T13:08:22.186Z,101491.80
2022-07-29T13:10:52.004Z,101483.21
2022-07-29T13:13:20.859Z,101483.57
2022-07-29T13:16:08.799Z,101481.92
2022-07-29T13:18:42.480Z,101485.02
2022-07-29T13:21:16.755Z,101485.55
2022-07-29T13:23:47.835Z,101484.44
2022-07-29T13:26:20.981Z,101485.41
2022-07-29T13:28:50.080Z,101481.29
2022-07-29T13:31:18.875Z,101480.61
2022-07-29T13:33:47.550Z,101479.90
2022-07-29T13:36:16.403Z,101480.50
2022-07-29T13:38:45.489Z,101479.69
2022-07-29T13:41:14.274Z,101479.13
2022-07-29T13:43:43.117Z,101480.71
2022-07-29T13:46:11.995Z,101476.07
2022-07-29T13:48:46.320Z,101467.30
2022-07-29T13:51:15.256Z,101472.20
2022-07-29T13:53:43.910Z,101470.92
2022-07-29T13:56:12.664Z,101474.45
2022-07-29T13:58:41.377Z,101475.23
2022-07-29T14:01:10.173Z,101473.08
2022-07-29T14:03:45.681Z,101466.60
2022-07-29T14:06:14.577Z,101460.80
2022-07-29T14:08:44.187Z,101458.50
2022-07-29T14:11:13.042Z,101450.10
2022-07-29T14:13:42.012Z,101443.67
2022-07-29T14:16:10.892Z,101438.55
2022-07-29T14:18:39.777Z,101435.17
2022-07-29T14:21:08.562Z,101435.11
2022-07-29T14:23:38.517Z,101433.77
2022-07-29T14:26:13.140Z,101427.92
2022-07-29T14:28:45.783Z,101423.56
2022-07-29T14:31:14.463Z,101419.84
2022-07-29T14:33:43.902Z,101420.02
2022-07-29T14:36:15.281Z,101420.50
2022-07-29T14:38:43.995Z,101422.84
2022-07-29T14:41:13.149Z,101421.55
2022-07-29T14:43:41.927Z,101420.90
2022-07-29T14:46:10.922Z,101423.70
2022-07-29T14:48:39.745Z,101419.48
2022-07-29T14:51:08.994Z,101417.83
2022-07-29T14:53:37.851Z,101414.30
2022-07-29T14:56:34.334Z,101410.25
2022-07-29T14:58:55.705Z,101408.86
2022-07-29T15:01:25.888Z,101404.62
2022-07-29T15:03:58.055Z,101407.80
2022-07-29T15:06:28.787Z,101402.36
2022-07-29T15:08:57.823Z,101399.98
2022-07-29T15:11:26.753Z,101398.67
2022-07-29T15:13:55.626Z,101398.06
2022-07-29T15:16:25.338Z,101401.51
2022-07-29T15:18:54.296Z,101399.94
2022-07-29T15:21:23.112Z,101400.86
2022-07-29T15:23:51.870Z,101398.50
2022-07-29T15:26:20.659Z,101396.96
2022-07-29T15:28:49.623Z,101396.75
2022-07-29T15:31:20.103Z,101393.17
2022-07-29T15:33:49.102Z,101384.88
2022-07-29T15:36:50.150Z,101387.94
2022-07-29T15:39:16.698Z,101393.17
2022-07-29T15:41:45.472Z,101399.68
2022-07-29T15:44:14.407Z,101399.48
2022-07-29T15:47:02.239Z,101398.19
2022-07-29T15:49:47.214Z,101401.39
2022-07-29T15:52:25.877Z,101406.94
2022-07-29T15:54:56.797Z,101405.80
2022-07-29T15:57:26.066Z,101409.42
2022-07-29T15:59:55.006Z,101414.12
2022-07-29T16:02:23.977Z,101418.80
2022-07-29T16:04:52.698Z,101419.08
2022-07-29T16:07:22.127Z,101417.89
2022-07-29T16:09:53.342Z,101415.89
2022-07-29T16:12:22.177Z,101418.75
2022-07-29T16:14:51.527Z,101420.59
2022-07-29T16:17:20.527Z,101420.47
2022-07-29T16:19:49.274Z,101419.76
2022-07-29T16:22:18.037Z,101421.65
2022-07-29T16:24:46.785Z,101419.72
2022-07-29T16:27:15.457Z,101416.98
2022-07-29T16:29:44.327Z,101414.34
2022-07-29T16:32:13.274Z,101414.14
2022-07-29T16:34:41.960Z,101412.20
2022-07-29T16:37:10.705Z,101409.16
2022-07-29T16:39:39.404Z,101403.05
2022-07-29T16:42:08.198Z,101405.20
2022-07-29T16:44:37.295Z,101410.56
2022-07-29T16:47:06.731Z,101412.00
2022-07-29T16:49:35.692Z,101415.42
2022-07-29T16:52:04.988Z,101410.18
2022-07-29T16:54:36.405Z,101413.59
2022-07-29T16:57:05.241Z,101413.87
2022-07-29T16:59:34.420Z,101412.78
2022-07-29T17:02:12.433Z,101410.83
2022-07-29T17:04:41.136Z,101408.70
2022-07-29T17:07:09.868Z,101407.98
2022-07-29T17:09:38.604Z,101402.91
2022-07-29T17:12:07.613Z,101399.84
2022-07-29T17:14:37.026Z,101397.44
2022-07-29T17:17:06.899Z,101399.24
2022-07-29T17:19:43.085Z,101400.31
2022-07-29T17:22:18.684Z,101393.19
2022-07-29T17:24:48.894Z,101383.23
2022-07-29T17:27:18.034Z,101387.15
2022-07-29T17:29:47.224Z,101389.27
2022-07-29T17:32:15.997Z,101388.83
2022-07-29T17:34:44.821Z,101387.85
2022-07-29T17:37:13.401Z,101388.70
2022-07-29T17:39:42.937Z,101388.16
2022-07-29T17:42:13.877Z,101388.74
2022-07-29T17:44:42.369Z,101388.47
2022-07-29T17:47:16.303Z,101386.37
2022-07-29T17:49:46.060Z,101386.48
2022-07-29T17:52:16.135Z,101391.52
2022-07-29T17:54:49.562Z,101396.59
2022-07-29T17:57:20.877Z,101395.12
2022-07-29T17:59:49.913Z,101395.20
2022-07-29T18:02:19.148Z,101393.58
2022-07-29T18:04:50.650Z,101392.19
2022-07-29T18:07:22.163Z,101389.82
2022-07-29T18:09:56.315Z,101389.89
2022-07-29T18:12:27.609Z,101389.20
2022-07-29T18:14:56.420Z,101395.80
2022-07-29T18:17:35.064Z,101394.49
2022-07-29T18:20:18.950Z,101393.23
2022-07-29T18:22:51.543Z,101389.07
2022-07-29T18:25:21.060Z,101388.90
2022-07-29T18:27:55.265Z,101390.25
2022-07-29T18:30:30.158Z,101387.69
2022-07-29T18:36:10.756Z,101388.21
2022-07-29T18:38:41.396Z,101391.91
2022-07-29T18:41:10.162Z,101393.45
2022-07-29T18:43:39.170Z,101396.55
2022-07-29T18:46:08.161Z,101395.24
2022-07-29T18:48:37.034Z,101401.11
2022-07-29T18:51:09.053Z,101405.25
2022-07-29T18:53:38.332Z,101410.36
2022-07-29T18:56:07.054Z,101408.20
2022-07-29T18:58:37.348Z,101409.94
2022-07-29T19:01:06.679Z,101412.25
2022-07-29T19:03:35.709Z,101414.00
2022-07-29T19:06:04.737Z,101419.57
2022-07-29T19:08:33.979Z,101418.17
2022-07-29T19:11:02.714Z,101419.92
2022-07-29T19:13:31.556Z,101423.16
2022-07-29T19:16:00.414Z,101427.38
2022-07-29T19:18:29.562Z,101431.58
2022-07-29T19:20:58.201Z,101428.27
2022-07-29T19:23:26.896Z,101429.20
2022-07-29T19:25:55.658Z,101428.83
2022-07-29T19:28:24.370Z,101430.31
2022-07-29T19:30:53.173Z,101433.19
2022-07-29T19:33:22.126Z,101432.87
2022-07-29T19:35:54.759Z,101435.02
2022-07-29T19:38:23.965Z,101437.52
2022-07-29T19:40:52.859Z,101445.25
2022-07-29T19:43:50.452Z,101448.18
2022-07-29T19:46:10.463Z,101446.45
2022-07-29T19:48:39.379Z,101441.52
2022-07-29T19:51:08.259Z,101438.89
2022-07-29T19:53:37.103Z,101433.15
2022-07-29T19:56:06.162Z,101431.27
2022-07-29T19:58:37.912Z,101431.31
2022-07-29T20:01:10.223Z,101427.78
2022-07-29T20:03:42.493Z,101429.35
2022-07-29T20:06:11.478Z,101424.05
2022-07-29T20:08:40.461Z,101420.93
2022-07-29T20:11:09.688Z,101421.69
2022-07-29T20:13:38.554Z,101423.45
2022-07-29T20:16:08.616Z,101425.30
2022-07-29T20:18:37.677Z,101423.84
2022-07-29T20:21:06.620Z,101426.23
2022-07-29T20:23:36.260Z,101425.71
2022-07-29T20:26:09.254Z,101422.34
2022-07-29T20:28:40.479Z,101422.33
2022-07-29T20:31:09.289Z,101421.91
2022-07-29T20:33:38.141Z,101420.81
2022-07-29T20:36:07.128Z,101421.13
2022-07-29T20:38:36.103Z,101422.69
2022-07-29T20:41:05.221Z,101420.77
2022-07-29T20:43:38.969Z,101419.77
2022-07-29T20:46:08.179Z,101417.64
2022-07-29T20:48:37.106Z,101419.71
2022-07-29T20:51:06.061Z,101419.71
2022-07-29T20:53:34.879Z,101409.99
2022-07-29T20:56:03.655Z,101417.92
2022-07-29T20:58:34.287Z,101414.74
2022-07-29T21:01:04.021Z,101419.69
2022-07-29T21:03:33.051Z,101418.80
2022-07-29T21:06:02.331Z,101422.54
2022-07-29T21:08:31.088Z,101425.40
2022-07-29T21:10:59.880Z,101424.52
2022-07-29T21:13:28.682Z,101424.84
2022-07-29T21:16:03.479Z,101425.20
2022-07-29T21:18:37.659Z,101422.79
2022-07-29T21:21:06.982Z,101417.46
2022-07-29T21:23:36.166Z,101412.60
2022-07-29T21:26:07.733Z,101409.02
2022-07-29T21:28:40.375Z,101402.06
2022-07-29T21:31:12.719Z,101396.98
2022-07-29T21:33:44.276Z,101390.95
2022-07-29T21:36:47.818Z,101387.08
2022-07-29T21:39:07.287Z,101379.64
2022-07-29T21:41:36.240Z,101378.34
2022-07-29T21:44:04.990Z,101380.74
2022-07-29T21:46:33.640Z,101380.38
2022-07-29T21:49:02.407Z,101377.73
2022-07-29T21:51:31.097Z,101376.58
2022-07-29T21:53:59.718Z,101374.15
2022-07-29T21:56:31.479Z,101375.94
2022-07-29T21:59:00.406Z,101377.55
2022-07-29T22:01:29.179Z,101375.41
2022-07-29T22:04:08.364Z,101375.80
2022-07-29T22:06:37.158Z,101373.05
2022-07-29T22:09:06.074Z,101368.11
2022-07-29T22:11:36.873Z,101367.45
2022-07-29T22:14:05.833Z,101366.64
2022-07-29T22:16:34.781Z,101366.48
2022-07-29T22:19:04.073Z,101368.72
2022-07-29T22:21:32.792Z,101370.19
2022-07-29T22:24:01.838Z,101363.79
2022-07-29T22:26:30.504Z,101364.69
2022-07-29T22:28:59.292Z,101364.38
2022-07-29T22:31:28.151Z,101362.83
2022-07-29T22:33:56.829Z,101362.92
2022-07-29T22:36:26.600Z,101358.55
2022-07-29T22:38:55.245Z,101363.37
2022-07-29T22:41:23.991Z,101358.48
2022-07-29T22:43:52.747Z,101357.62
2022-07-29T22:46:22.598Z,101361.17
2022-07-29T22:48:51.527Z,101357.04
2022-07-29T22:51:20.373Z,101354.39
2022-07-29T22:53:49.215Z,101351.89
2022-07-29T22:56:19.435Z,101356.62
2022-07-29T22:58:49.294Z,101355.80
2022-07-29T23:01:37.206Z,101357.19
2022-07-29T23:04:07.773Z,101357.48
2022-07-29T23:06:36.936Z,101354.00
2022-07-29T23:09:06.493Z,101348.66
2022-07-29T23:11:35.103Z,101346.84
2022-07-29T23:14:03.791Z,101344.16
2022-07-29T23:16:32.727Z,101337.55
2022-07-29T23:19:01.535Z,101338.46
2022-07-29T23:21:30.270Z,101339.71
2022-07-29T23:23:59.039Z,101336.99
2022-07-29T23:26:28.448Z,101332.76
2022-07-29T23:28:57.104Z,101326.06
2022-07-29T23:31:25.892Z,101321.14
2022-07-29T23:33:54.628Z,101320.93
2022-07-29T23:36:23.365Z,101320.86
2022-07-29T23:38:52.182Z,101318.86
2022-07-29T23:41:21.696Z,101315.10
2022-07-29T23:43:50.944Z,101316.90
2022-07-29T23:46:23.855Z,101320.23
2022-07-29T23:48:53.164Z,101318.14
2022-07-29T23:51:22.049Z,101318.30
2022-07-29T23:53:53.059Z,101318.98
2022-07-29T23:56:23.543Z,101324.81
2022-07-29T23:58:52.238Z,101322.36
